PDN weather

Parndana Airport
Kangaroo Island, South Australia, Australia

Public forecast

Using degrees Celsius for public forecast. Weather courtesy of forecast.io.

Closest aviation weather report (METAR) to Parndana Airport

Closest report is Adelaide International Airport, 80.8 nm (149.6 km) NE. Retrieved 2020/02/19 16:30 UTC (0 seconds ago):

YPAD 191630Z 20005KT CAVOK 13/08 Q1017 NOSIG

Closest aviation forecast (TAF) to Parndana Airport

Closest forecast is Adelaide International Airport, 80.8 nm (149.6 km) NE. Retrieved 2020/02/19 12:00 UTC (4 hours ago):

TAF YPAD 191110Z 1912/2018 16010KT 9999 FEW035 FM192100 VRB05KT CAVOK FM200200 22014KT 9999 FEW035 FM200800 16014KT 9999 FEW035